createdAt,value
2023-05-10T00:03:48.511Z,0.80
2023-05-10T00:09:16.270Z,1.00
2023-05-10T00:14:41.247Z,0.88
2023-05-10T00:20:06.895Z,0.95
2023-05-10T00:25:34.252Z,0.90
2023-05-10T00:30:59.244Z,1.00
2023-05-10T00:36:25.776Z,1.00
2023-05-10T00:41:53.273Z,0.80
2023-05-10T00:47:19.286Z,0.80
2023-05-10T00:52:44.329Z,0.95
2023-05-10T00:58:12.289Z,0.90
2023-05-10T01:03:38.407Z,0.90
2023-05-10T01:09:03.313Z,0.80
2023-05-10T01:14:32.297Z,1.00
2023-05-10T01:19:59.257Z,0.90
2023-05-10T01:26:05.278Z,0.90
2023-05-10T01:31:56.311Z,0.90
2023-05-10T01:37:30.326Z,1.00
2023-05-10T01:43:03.293Z,0.90
2023-05-10T01:48:30.311Z,0.90
2023-05-10T01:53:59.360Z,0.95
2023-05-10T01:59:28.281Z,0.90
2023-05-10T02:04:55.296Z,1.00
2023-05-10T02:10:25.319Z,0.88
2023-05-10T02:15:52.335Z,1.00
2023-05-10T02:21:25.304Z,1.00
2023-05-10T02:26:54.311Z,0.98
2023-05-10T02:32:19.397Z,1.00
2023-05-10T02:37:46.301Z,0.93
2023-05-10T02:43:15.317Z,1.02
2023-05-10T02:48:40.318Z,0.98
2023-05-10T02:54:07.321Z,0.90
2023-05-10T02:59:35.347Z,1.10
2023-05-10T03:04:59.499Z,0.90
2023-05-10T03:10:24.324Z,1.08
2023-05-10T03:15:59.344Z,1.10
2023-05-10T03:21:28.364Z,1.00
2023-05-10T03:27:01.433Z,1.15
2023-05-10T03:32:29.392Z,1.00
2023-05-10T03:37:55.446Z,0.93
2023-05-10T03:43:20.347Z,1.20
2023-05-10T03:48:47.360Z,0.93
2023-05-10T03:54:12.367Z,1.00
2023-05-10T03:59:37.512Z,1.00
2023-05-10T04:05:05.367Z,1.10
2023-05-10T04:10:29.397Z,1.10
2023-05-10T04:15:54.387Z,1.00
2023-05-10T04:21:21.369Z,1.00
2023-05-10T04:26:46.417Z,1.00
2023-05-10T04:32:11.423Z,0.90
2023-05-10T04:37:39.414Z,1.08
2023-05-10T04:43:03.389Z,0.90
2023-05-10T04:48:28.394Z,0.95
2023-05-10T04:54:05.078Z,0.90
2023-05-10T04:59:31.405Z,0.90
2023-05-10T05:04:55.420Z,0.93
2023-05-10T05:10:23.426Z,0.90
2023-05-10T05:15:47.420Z,1.08
2023-05-10T05:21:12.398Z,1.08
2023-05-10T05:26:40.417Z,1.08
2023-05-10T05:32:05.456Z,1.00
2023-05-10T05:37:32.448Z,1.10
2023-05-10T05:43:00.460Z,1.02
2023-05-10T05:48:24.459Z,1.02
2023-05-10T05:53:49.444Z,1.00
2023-05-10T05:59:16.440Z,0.95
2023-05-10T06:04:44.411Z,1.20
2023-05-10T06:10:08.473Z,1.02
2023-05-10T06:15:36.467Z,1.10
2023-05-10T06:21:00.471Z,1.30
2023-05-10T06:26:25.468Z,1.23
2023-05-10T06:31:52.600Z,1.10
2023-05-10T06:37:17.500Z,1.20
2023-05-10T06:42:41.481Z,1.30
2023-05-10T06:48:09.505Z,1.00
2023-05-10T06:53:33.487Z,1.20
2023-05-10T06:58:58.507Z,1.15
2023-05-10T07:04:25.479Z,1.30
2023-05-10T07:09:50.504Z,1.30
2023-05-10T07:15:14.619Z,1.30
2023-05-10T07:20:42.957Z,1.30
2023-05-10T07:26:07.516Z,1.20
2023-05-10T07:31:32.501Z,1.30
2023-05-10T07:36:59.481Z,1.48
2023-05-10T07:42:24.537Z,1.50
2023-05-10T07:47:48.551Z,1.30
2023-05-10T07:53:16.514Z,1.58
2023-05-10T07:58:41.519Z,1.50
2023-05-10T08:04:06.571Z,1.50
2023-05-10T08:09:33.507Z,1.50
2023-05-10T08:14:58.508Z,1.50
2023-05-10T08:20:25.511Z,1.95
2023-05-10T08:25:53.512Z,2.20
2023-05-10T08:31:17.676Z,1.48
2023-05-10T08:36:42.501Z,1.50
2023-05-10T08:42:15.523Z,1.60
2023-05-10T08:47:41.570Z,1.50
2023-05-10T08:53:09.587Z,1.38
2023-05-10T08:58:37.550Z,1.30
2023-05-10T09:04:03.659Z,1.50
2023-05-10T09:09:28.573Z,1.55
2023-05-10T09:14:56.549Z,1.50
2023-05-10T09:20:21.548Z,1.60
2023-05-10T09:25:46.594Z,1.75
2023-05-10T09:31:20.605Z,1.40
2023-05-10T09:36:46.563Z,1.50
2023-05-10T09:42:11.583Z,1.33
2023-05-10T09:47:39.592Z,1.33
2023-05-10T09:53:06.581Z,1.27
2023-05-10T09:58:31.568Z,1.52
2023-05-10T10:04:05.610Z,1.17
2023-05-10T10:09:30.608Z,1.30
2023-05-10T10:14:57.661Z,1.23
2023-05-10T10:20:26.712Z,1.10
2023-05-10T10:25:55.593Z,1.10
2023-05-10T10:31:38.687Z,1.10
2023-05-10T10:37:08.656Z,1.10
2023-05-10T10:43:02.645Z,1.00
2023-05-10T10:48:32.807Z,0.95
2023-05-10T10:54:00.735Z,0.90
2023-05-10T10:59:37.603Z,0.93
2023-05-10T11:05:02.720Z,1.00
2023-05-10T11:10:33.725Z,0.90
2023-05-10T11:16:06.680Z,0.77
2023-05-10T11:21:32.614Z,0.77
2023-05-10T11:26:59.686Z,0.70
2023-05-10T11:32:25.801Z,0.60
2023-05-10T11:37:43.609Z,0.68
2023-05-10T11:43:13.790Z,0.50
2023-05-10T11:48:40.709Z,0.88
2023-05-10T11:54:06.756Z,1.00
2023-05-10T11:59:35.666Z,1.00
2023-05-10T12:05:00.757Z,1.10
2023-05-10T12:10:25.693Z,1.10
2023-05-10T12:15:52.725Z,0.80
2023-05-10T12:21:19.764Z,0.80
2023-05-10T12:26:46.819Z,0.90
2023-05-10T12:32:14.824Z,0.80
2023-05-10T12:37:43.762Z,0.88
2023-05-10T12:43:08.745Z,0.70
2023-05-10T12:48:36.710Z,0.57
2023-05-10T12:54:02.759Z,0.25
2023-05-10T12:59:28.778Z,0.30
2023-05-10T13:04:56.799Z,0.20
2023-05-10T13:10:22.683Z,0.20
2023-05-10T13:15:51.998Z,0.10
2023-05-10T13:21:19.685Z,0.20
2023-05-10T13:26:44.687Z,0.10
2023-05-10T13:32:08.717Z,0.10
2023-05-10T13:37:36.708Z,0.10
2023-05-10T13:43:00.832Z,0.50
2023-05-10T13:48:25.907Z,0.20
2023-05-10T13:53:54.968Z,0.50
2023-05-10T13:59:19.788Z,0.10
2023-05-10T14:04:44.812Z,0.03
2023-05-10T14:10:12.845Z,0.20
2023-05-10T14:15:38.890Z,0.20
2023-05-10T14:21:03.805Z,0.25
2023-05-10T14:26:30.780Z,0.20
2023-05-10T14:31:55.858Z,0.30
2023-05-10T14:37:19.729Z,0.20
2023-05-10T14:42:47.781Z,0.20
2023-05-10T14:48:12.760Z,0.22
2023-05-10T14:53:37.737Z,0.30
2023-05-10T14:59:06.798Z,0.20
2023-05-10T15:04:31.742Z,0.20
2023-05-10T15:09:55.774Z,0.20
2023-05-10T15:15:23.776Z,0.08
2023-05-10T15:20:48.825Z,0.15
2023-05-10T15:26:13.761Z,0.20
2023-05-10T15:31:48.875Z,0.10
2023-05-10T15:37:13.811Z,0.10
2023-05-10T15:42:37.808Z,0.20
2023-05-10T15:48:05.955Z,0.10
2023-05-10T15:53:29.823Z,0.20
2023-05-10T15:58:54.764Z,0.20
2023-05-10T16:04:21.806Z,0.20
2023-05-10T16:09:39.829Z,0.10
2023-05-10T16:15:04.838Z,0.20
2023-05-10T16:20:36.615Z,0.30
2023-05-10T16:26:01.873Z,0.20
2023-05-10T16:31:28.026Z,0.30
2023-05-10T16:36:55.903Z,0.22
2023-05-10T16:42:21.937Z,0.30
2023-05-10T16:47:49.320Z,0.45
2023-05-10T16:53:15.846Z,0.38
2023-05-10T16:58:40.846Z,0.30
2023-05-10T17:04:04.889Z,0.40
2023-05-10T17:09:32.913Z,0.47
2023-05-10T17:14:56.869Z,0.40
2023-05-10T17:20:21.995Z,0.60
2023-05-10T17:25:51.855Z,0.68
2023-05-10T17:31:23.885Z,0.70
2023-05-10T17:36:48.904Z,0.60
2023-05-10T17:42:15.876Z,0.80
2023-05-10T17:47:40.883Z,0.60
2023-05-10T17:53:04.894Z,0.60
2023-05-10T17:58:32.909Z,0.50
2023-05-10T18:03:58.874Z,0.80
2023-05-10T18:09:24.879Z,0.70
2023-05-10T18:14:51.951Z,0.80
2023-05-10T18:20:18.865Z,0.60
2023-05-10T18:25:43.900Z,0.80
2023-05-10T18:31:18.975Z,0.70
2023-05-10T18:36:43.901Z,0.60
2023-05-10T18:42:08.881Z,0.60
2023-05-10T18:47:36.990Z,0.60
2023-05-10T18:53:02.921Z,0.73
2023-05-10T18:58:27.901Z,0.60
2023-05-10T19:03:54.896Z,0.70
2023-05-10T19:09:19.938Z,0.80
2023-05-10T19:14:43.888Z,0.50
2023-05-10T19:20:11.965Z,0.60
2023-05-10T19:25:35.971Z,0.80
2023-05-10T19:31:12.022Z,0.80
2023-05-10T19:36:40.003Z,0.80
2023-05-10T19:42:05.011Z,0.70
2023-05-10T19:47:30.023Z,0.40
2023-05-10T19:52:56.960Z,0.30
2023-05-10T19:58:21.989Z,0.40
2023-05-10T20:03:46.060Z,0.32
2023-05-10T20:09:13.945Z,0.40
2023-05-10T20:14:38.034Z,0.45
2023-05-10T20:20:03.028Z,0.40
2023-05-10T20:25:30.983Z,0.40
2023-05-10T20:31:03.012Z,0.30
2023-05-10T20:36:28.997Z,0.70
2023-05-10T20:41:55.991Z,0.40
2023-05-10T20:47:21.019Z,0.40
2023-05-10T20:52:45.015Z,0.30
2023-05-10T20:58:13.097Z,0.45
2023-05-10T21:03:37.969Z,0.40
2023-05-10T21:09:03.029Z,0.50
2023-05-10T21:14:30.018Z,0.40
2023-05-10T21:19:55.015Z,0.45
2023-05-10T21:25:20.060Z,0.30
2023-05-10T21:30:48.015Z,0.35
2023-05-10T21:36:14.051Z,0.50
2023-05-10T21:41:39.056Z,0.50
2023-05-10T21:47:06.029Z,0.50
2023-05-10T21:52:31.060Z,0.30
2023-05-10T21:57:56.059Z,0.40
2023-05-10T22:03:24.274Z,0.40
2023-05-10T22:08:48.016Z,0.28
2023-05-10T22:14:13.047Z,0.52
2023-05-10T22:19:40.033Z,0.30
2023-05-10T22:25:05.061Z,0.60
2023-05-10T22:30:30.454Z,0.52
2023-05-10T22:36:00.033Z,0.60
2023-05-10T22:41:24.053Z,0.45
2023-05-10T22:46:49.096Z,0.52
2023-05-10T22:52:16.064Z,0.63
2023-05-10T22:57:41.088Z,0.57
2023-05-10T23:03:07.078Z,0.52
2023-05-10T23:08:35.072Z,0.70
2023-05-10T23:14:00.383Z,0.70
2023-05-10T23:19:26.237Z,0.60
2023-05-10T23:24:55.077Z,0.70
2023-05-10T23:30:21.056Z,0.57
2023-05-10T23:35:45.087Z,0.70
2023-05-10T23:41:13.072Z,0.90
2023-05-10T23:46:38.066Z,0.80
2023-05-10T23:52:03.126Z,0.80
2023-05-10T23:57:30.099Z,0.80
